sensor_id;sensor_type;location;lat;lon;timestamp;pressure;altitude;pressure_sealevel;temperature;humidity
20825;BME280;10573;50.936;6.978;2023-05-10T00:01:07;100444.31;;;16.05;75.81
20825;BME280;10573;50.936;6.978;2023-05-10T00:03:32;100447.63;;;16.00;75.57
20825;BME280;10573;50.936;6.978;2023-05-10T00:05:58;100452.00;;;16.09;75.62
20825;BME280;10573;50.936;6.978;2023-05-10T00:08:23;100455.50;;;16.33;75.14
20825;BME280;10573;50.936;6.978;2023-05-10T00:10:49;100451.03;;;16.32;75.91
20825;BME280;10573;50.936;6.978;2023-05-10T00:13:14;100451.53;;;16.21;75.63
20825;BME280;10573;50.936;6.978;2023-05-10T00:15:40;100446.75;;;16.44;74.72
20825;BME280;10573;50.936;6.978;2023-05-10T00:18:05;100452.00;;;16.09;75.61
20825;BME280;10573;50.936;6.978;2023-05-10T00:20:31;100447.06;;;16.20;75.32
20825;BME280;10573;50.936;6.978;2023-05-10T00:22:56;100444.13;;;16.06;75.78
20825;BME280;10573;50.936;6.978;2023-05-10T00:25:22;100448.41;;;15.94;76.22
20825;BME280;10573;50.936;6.978;2023-05-10T00:27:47;100452.47;;;16.13;75.79
20825;BME280;10573;50.936;6.978;2023-05-10T00:30:13;100447.03;;;15.90;76.33
20825;BME280;10573;50.936;6.978;2023-05-10T00:32:38;100443.00;;;16.16;75.74
20825;BME280;10573;50.936;6.978;2023-05-10T00:35:04;100452.56;;;16.20;75.46
20825;BME280;10573;50.936;6.978;2023-05-10T00:37:30;100442.91;;;15.94;75.95
20825;BME280;10573;50.936;6.978;2023-05-10T00:39:55;100449.44;;;16.08;75.78
20825;BME280;10573;50.936;6.978;2023-05-10T00:42:21;100449.72;;;16.28;75.77
20825;BME280;10573;50.936;6.978;2023-05-10T00:44:47;100450.56;;;16.28;75.80
20825;BME280;10573;50.936;6.978;2023-05-10T00:47:12;100447.44;;;16.17;75.43
20825;BME280;10573;50.936;6.978;2023-05-10T00:49:38;100446.03;;;16.36;75.28
20825;BME280;10573;50.936;6.978;2023-05-10T00:52:03;100444.50;;;16.33;75.06
20825;BME280;10573;50.936;6.978;2023-05-10T00:54:29;100449.69;;;16.43;74.54
20825;BME280;10573;50.936;6.978;2023-05-10T00:56:55;100448.28;;;16.32;75.28
20825;BME280;10573;50.936;6.978;2023-05-10T00:59:22;100454.38;;;16.42;74.98
20825;BME280;10573;50.936;6.978;2023-05-10T01:01:48;100445.75;;;16.16;75.40
20825;BME280;10573;50.936;6.978;2023-05-10T01:04:14;100449.91;;;16.12;76.41
20825;BME280;10573;50.936;6.978;2023-05-10T01:06:41;100446.88;;;16.06;75.85
20825;BME280;10573;50.936;6.978;2023-05-10T01:09:06;100441.19;;;16.23;76.24
20825;BME280;10573;50.936;6.978;2023-05-10T01:11:38;100444.78;;;16.08;75.91
20825;BME280;10573;50.936;6.978;2023-05-10T01:14:05;100450.84;;;16.19;75.89
20825;BME280;10573;50.936;6.978;2023-05-10T01:16:38;100441.88;;;16.25;75.97
20825;BME280;10573;50.936;6.978;2023-05-10T01:19:28;100450.00;;;16.33;75.42
20825;BME280;10573;50.936;6.978;2023-05-10T01:33:22;100456.53;;;16.32;75.13
20825;BME280;10573;50.936;6.978;2023-05-10T01:39:09;100449.44;;;15.93;76.80
20825;BME280;10573;50.936;6.978;2023-05-10T01:46:35;100457.97;;;16.28;75.29
20825;BME280;10573;50.936;6.978;2023-05-10T01:49:03;100453.78;;;16.32;75.47
20825;BME280;10573;50.936;6.978;2023-05-10T01:51:39;100452.94;;;16.17;76.13
20825;BME280;10573;50.936;6.978;2023-05-10T01:54:08;100446.38;;;16.33;75.74
20825;BME280;10573;50.936;6.978;2023-05-10T01:56:35;100447.63;;;16.30;75.15
20825;BME280;10573;50.936;6.978;2023-05-10T01:59:06;100453.41;;;16.20;75.47
20825;BME280;10573;50.936;6.978;2023-05-10T02:01:36;100447.06;;;16.20;75.53
20825;BME280;10573;50.936;6.978;2023-05-10T02:04:02;100444.69;;;16.17;75.23
20825;BME280;10573;50.936;6.978;2023-05-10T02:06:28;100448.31;;;16.17;75.12
20825;BME280;10573;50.936;6.978;2023-05-10T02:08:56;100458.81;;;16.14;75.71
20825;BME280;10573;50.936;6.978;2023-05-10T02:11:23;100459.00;;;15.97;76.76
20825;BME280;10573;50.936;6.978;2023-05-10T02:13:50;100459.00;;;15.97;77.22
20825;BME280;10573;50.936;6.978;2023-05-10T02:16:18;100453.03;;;16.08;76.92
20825;BME280;10573;50.936;6.978;2023-05-10T02:18:48;100462.19;;;15.86;77.31
20825;BME280;10573;50.936;6.978;2023-05-10T02:21:14;100465.22;;;15.91;77.70
20825;BME280;10573;50.936;6.978;2023-05-10T02:23:40;100464.19;;;15.92;77.64
20825;BME280;10573;50.936;6.978;2023-05-10T02:26:07;100466.38;;;15.97;77.47
20825;BME280;10573;50.936;6.978;2023-05-10T02:28:35;100477.47;;;16.03;77.04
20825;BME280;10573;50.936;6.978;2023-05-10T02:31:03;100475.53;;;15.74;78.56
20825;BME280;10573;50.936;6.978;2023-05-10T02:33:29;100474.09;;;15.78;77.38
20825;BME280;10573;50.936;6.978;2023-05-10T02:35:56;100483.91;;;15.72;77.63
20825;BME280;10573;50.936;6.978;2023-05-10T02:38:22;100471.88;;;15.58;77.74
20825;BME280;10573;50.936;6.978;2023-05-10T02:40:50;100480.13;;;15.73;77.45
20825;BME280;10573;50.936;6.978;2023-05-10T02:43:16;100474.44;;;15.83;77.20
20825;BME280;10573;50.936;6.978;2023-05-10T02:45:47;100478.53;;;15.79;77.39
20825;BME280;10573;50.936;6.978;2023-05-10T02:48:12;100489.03;;;15.99;77.16
20825;BME280;10573;50.936;6.978;2023-05-10T02:50:42;100482.59;;;15.91;77.38
20825;BME280;10573;50.936;6.978;2023-05-10T02:53:15;100488.44;;;15.88;78.27
20825;BME280;10573;50.936;6.978;2023-05-10T02:55:45;100488.09;;;15.91;78.00
20825;BME280;10573;50.936;6.978;2023-05-10T02:58:14;100495.75;;;15.96;77.60
20825;BME280;10573;50.936;6.978;2023-05-10T03:00:39;100494.03;;;15.95;78.27
20825;BME280;10573;50.936;6.978;2023-05-10T03:03:05;100481.41;;;15.86;78.31
20825;BME280;10573;50.936;6.978;2023-05-10T03:05:30;100480.97;;;15.97;77.53
20825;BME280;10573;50.936;6.978;2023-05-10T03:07:56;100478.34;;;16.19;76.74
20825;BME280;10573;50.936;6.978;2023-05-10T03:10:27;100478.16;;;16.05;77.53
20825;BME280;10573;50.936;6.978;2023-05-10T03:13:18;100486.38;;;16.20;76.09
20825;BME280;10573;50.936;6.978;2023-05-10T03:16:29;100481.72;;;15.91;76.70
20825;BME280;10573;50.936;6.978;2023-05-10T03:19:13;100488.56;;;16.10;76.09
20825;BME280;10573;50.936;6.978;2023-05-10T03:21:44;100491.50;;;16.08;75.13
20825;BME280;10573;50.936;6.978;2023-05-10T03:24:13;100495.22;;;16.16;75.93
20825;BME280;10573;50.936;6.978;2023-05-10T03:26:43;100500.03;;;16.14;74.81
20825;BME280;10573;50.936;6.978;2023-05-10T03:29:11;100489.44;;;16.10;75.17
20825;BME280;10573;50.936;6.978;2023-05-10T03:31:38;100499.06;;;15.68;75.43
20825;BME280;10573;50.936;6.978;2023-05-10T03:34:03;100500.88;;;15.99;74.87
20825;BME280;10573;50.936;6.978;2023-05-10T03:36:29;100497.34;;;15.90;75.86
20825;BME280;10573;50.936;6.978;2023-05-10T03:38:54;100503.13;;;15.81;76.11
20825;BME280;10573;50.936;6.978;2023-05-10T03:41:20;100508.25;;;15.84;76.23
20825;BME280;10573;50.936;6.978;2023-05-10T03:43:45;100515.38;;;15.93;76.07
20825;BME280;10573;50.936;6.978;2023-05-10T03:46:11;100516.00;;;15.95;76.35
20825;BME280;10573;50.936;6.978;2023-05-10T03:48:36;100511.84;;;15.99;76.50
20825;BME280;10573;50.936;6.978;2023-05-10T03:51:02;100511.75;;;15.92;76.39
20825;BME280;10573;50.936;6.978;2023-05-10T03:53:27;100504.47;;;15.85;76.32
20825;BME280;10573;50.936;6.978;2023-05-10T03:55:53;100509.28;;;15.98;76.42
20825;BME280;10573;50.936;6.978;2023-05-10T03:58:18;100514.13;;;15.72;76.75
20825;BME280;10573;50.936;6.978;2023-05-10T04:00:44;100511.19;;;15.97;76.56
20825;BME280;10573;50.936;6.978;2023-05-10T04:03:11;100510.91;;;15.92;76.80
20825;BME280;10573;50.936;6.978;2023-05-10T04:05:37;100511.75;;;15.92;76.85
20825;BME280;10573;50.936;6.978;2023-05-10T04:08:03;100518.13;;;15.93;77.06
20825;BME280;10573;50.936;6.978;2023-05-10T04:10:29;100515.66;;;15.98;76.52
20825;BME280;10573;50.936;6.978;2023-05-10T04:12:54;100515.56;;;15.91;76.95
20825;BME280;10573;50.936;6.978;2023-05-10T04:15:20;100515.09;;;16.03;76.67
20825;BME280;10573;50.936;6.978;2023-05-10T04:17:47;100507.47;;;15.90;77.40
20825;BME280;10573;50.936;6.978;2023-05-10T04:20:13;100512.03;;;15.98;76.33
20825;BME280;10573;50.936;6.978;2023-05-10T04:22:38;100506.25;;;15.92;76.53
20825;BME280;10573;50.936;6.978;2023-05-10T04:25:04;100510.16;;;15.98;76.29
20825;BME280;10573;50.936;6.978;2023-05-10T04:27:30;100510.66;;;15.78;76.73
20825;BME280;10573;50.936;6.978;2023-05-10T04:29:56;100518.66;;;15.88;76.65
20825;BME280;10573;50.936;6.978;2023-05-10T04:32:22;100520.19;;;15.91;76.23
20825;BME280;10573;50.936;6.978;2023-05-10T04:34:47;100526.09;;;15.80;76.24
20825;BME280;10573;50.936;6.978;2023-05-10T04:37:13;100517.19;;;15.77;76.62
20825;BME280;10573;50.936;6.978;2023-05-10T04:39:38;100514.34;;;15.94;75.92
20825;BME280;10573;50.936;6.978;2023-05-10T04:42:04;100517.84;;;16.03;76.02
20825;BME280;10573;50.936;6.978;2023-05-10T04:44:33;100512.63;;;15.93;75.63
20825;BME280;10573;50.936;6.978;2023-05-10T04:46:59;100515.81;;;15.97;76.03
20825;BME280;10573;50.936;6.978;2023-05-10T04:49:25;100525.75;;;15.83;76.16
20825;BME280;10573;50.936;6.978;2023-05-10T04:51:50;100529.31;;;16.06;75.78
20825;BME280;10573;50.936;6.978;2023-05-10T04:54:16;100535.94;;;15.97;75.48
20825;BME280;10573;50.936;6.978;2023-05-10T04:56:41;100535.16;;;16.03;75.00
20825;BME280;10573;50.936;6.978;2023-05-10T04:59:07;100541.34;;;16.05;74.81
20825;BME280;10573;50.936;6.978;2023-05-10T05:01:32;100538.97;;;16.02;74.30
20825;BME280;10573;50.936;6.978;2023-05-10T05:03:58;100538.13;;;16.17;73.80
20825;BME280;10573;50.936;6.978;2023-05-10T05:06:23;100545.16;;;16.19;73.84
20825;BME280;10573;50.936;6.978;2023-05-10T05:08:50;100554.19;;;16.28;73.33
20825;BME280;10573;50.936;6.978;2023-05-10T05:11:16;100553.97;;;16.15;73.70
20825;BME280;10573;50.936;6.978;2023-05-10T05:13:41;100553.28;;;16.13;73.40
20825;BME280;10573;50.936;6.978;2023-05-10T05:16:07;100562.03;;;16.31;73.68
20825;BME280;10573;50.936;6.978;2023-05-10T05:18:32;100564.13;;;16.14;73.05
20825;BME280;10573;50.936;6.978;2023-05-10T05:20:58;100567.44;;;16.39;72.71
20825;BME280;10573;50.936;6.978;2023-05-10T05:23:23;100566.88;;;16.29;72.60
20825;BME280;10573;50.936;6.978;2023-05-10T05:25:52;100567.63;;;16.23;72.47
20825;BME280;10573;50.936;6.978;2023-05-10T05:28:18;100570.75;;;16.20;73.35
20825;BME280;10573;50.936;6.978;2023-05-10T05:30:43;100577.50;;;16.32;73.08
20825;BME280;10573;50.936;6.978;2023-05-10T05:33:09;100581.00;;;16.41;72.26
20825;BME280;10573;50.936;6.978;2023-05-10T05:35:34;100580.63;;;16.29;71.92
20825;BME280;10573;50.936;6.978;2023-05-10T05:38:00;100583.00;;;16.32;71.59
20825;BME280;10573;50.936;6.978;2023-05-10T05:40:26;100578.78;;;16.06;71.81
20825;BME280;10573;50.936;6.978;2023-05-10T05:42:51;100578.56;;;15.93;72.88
20825;BME280;10573;50.936;6.978;2023-05-10T05:45:16;100583.16;;;16.16;71.72
20825;BME280;10573;50.936;6.978;2023-05-10T05:47:42;100569.63;;;16.14;71.64
20825;BME280;10573;50.936;6.978;2023-05-10T05:50:08;100580.63;;;16.29;71.73
20825;BME280;10573;50.936;6.978;2023-05-10T05:52:33;100581.50;;;16.59;70.16
20825;BME280;10573;50.936;6.978;2023-05-10T05:54:58;100583.16;;;16.16;71.25
20825;BME280;10573;50.936;6.978;2023-05-10T05:57:24;100588.59;;;16.39;70.72
20825;BME280;10573;50.936;6.978;2023-05-10T05:59:51;100582.31;;;16.30;71.19
20825;BME280;10573;50.936;6.978;2023-05-10T06:02:17;100587.88;;;16.45;70.47
20825;BME280;10573;50.936;6.978;2023-05-10T06:04:42;100590.66;;;16.37;70.49
20825;BME280;10573;50.936;6.978;2023-05-10T06:07:08;100595.53;;;16.50;69.79
20825;BME280;10573;50.936;6.978;2023-05-10T06:09:33;100593.25;;;16.38;69.68
20825;BME280;10573;50.936;6.978;2023-05-10T06:11:58;100605.41;;;16.59;69.52
20825;BME280;10573;50.936;6.978;2023-05-10T06:14:24;100616.34;;;16.14;70.67
20825;BME280;10573;50.936;6.978;2023-05-10T06:16:50;100612.22;;;16.63;69.97
20825;BME280;10573;50.936;6.978;2023-05-10T06:19:15;100611.09;;;16.42;70.63
20825;BME280;10573;50.936;6.978;2023-05-10T06:21:40;100613.94;;;16.64;70.28
20825;BME280;10573;50.936;6.978;2023-05-10T06:24:06;100617.53;;;16.50;70.49
20825;BME280;10573;50.936;6.978;2023-05-10T06:26:32;100619.44;;;16.64;70.29
20825;BME280;10573;50.936;6.978;2023-05-10T06:28:57;100622.44;;;16.39;70.29
20825;BME280;10573;50.936;6.978;2023-05-10T06:31:23;100628.53;;;16.50;70.99
20825;BME280;10573;50.936;6.978;2023-05-10T06:33:48;100620.16;;;16.28;70.84
20825;BME280;10573;50.936;6.978;2023-05-10T06:36:14;100631.28;;;16.50;70.33
20825;BME280;10573;50.936;6.978;2023-05-10T06:38:39;100633.56;;;16.61;70.00
20825;BME280;10573;50.936;6.978;2023-05-10T06:41:05;100631.09;;;16.51;70.39
20825;BME280;10573;50.936;6.978;2023-05-10T06:43:30;100638.50;;;16.51;70.40
20825;BME280;10573;50.936;6.978;2023-05-10T06:45:56;100642.78;;;16.53;70.35
20825;BME280;10573;50.936;6.978;2023-05-10T06:48:22;100639.91;;;16.47;70.41
20825;BME280;10573;50.936;6.978;2023-05-10T06:50:47;100645.97;;;16.57;69.84
20825;BME280;10573;50.936;6.978;2023-05-10T06:53:13;100643.91;;;16.59;70.14
20825;BME280;10573;50.936;6.978;2023-05-10T06:55:39;100650.88;;;16.32;70.74
20825;BME280;10573;50.936;6.978;2023-05-10T06:58:04;100651.13;;;16.22;70.72
20825;BME280;10573;50.936;6.978;2023-05-10T07:00:30;100646.06;;;16.10;71.83
20825;BME280;10573;50.936;6.978;2023-05-10T07:02:55;100654.03;;;15.74;72.17
20825;BME280;10573;50.936;6.978;2023-05-10T07:05:21;100658.22;;;16.16;71.66
20825;BME280;10573;50.936;6.978;2023-05-10T07:07:46;100645.63;;;16.22;71.59
20825;BME280;10573;50.936;6.978;2023-05-10T07:10:12;100655.91;;;16.43;71.49
20825;BME280;10573;50.936;6.978;2023-05-10T07:12:37;100652.69;;;16.54;71.08
20825;BME280;10573;50.936;6.978;2023-05-10T07:15:04;100646.75;;;16.51;71.63
20825;BME280;10573;50.936;6.978;2023-05-10T07:17:29;100643.31;;;16.49;71.78
20825;BME280;10573;50.936;6.978;2023-05-10T07:19:55;100648.66;;;16.65;71.38
20825;BME280;10573;50.936;6.978;2023-05-10T07:22:20;100660.78;;;16.56;71.59
20825;BME280;10573;50.936;6.978;2023-05-10T07:24:45;100664.75;;;16.38;72.10
20825;BME280;10573;50.936;6.978;2023-05-10T07:27:11;100663.38;;;16.34;72.78
20825;BME280;10573;50.936;6.978;2023-05-10T07:29:38;100668.75;;;16.51;72.59
20825;BME280;10573;50.936;6.978;2023-05-10T07:32:03;100667.03;;;16.50;72.61
20825;BME280;10573;50.936;6.978;2023-05-10T07:34:29;100659.69;;;16.65;71.74
20825;BME280;10573;50.936;6.978;2023-05-10T07:36:57;100657.13;;;16.78;72.11
20825;BME280;10573;50.936;6.978;2023-05-10T07:39:23;100658.38;;;16.91;71.38
20825;BME280;10573;50.936;6.978;2023-05-10T07:41:48;100660.72;;;16.64;71.42
20825;BME280;10573;50.936;6.978;2023-05-10T07:44:13;100669.47;;;16.44;72.14
20825;BME280;10573;50.936;6.978;2023-05-10T07:46:39;100665.09;;;16.35;72.36
20825;BME280;10573;50.936;6.978;2023-05-10T07:49:04;100663.88;;;16.38;72.50
20825;BME280;10573;50.936;6.978;2023-05-10T07:51:30;100661.59;;;16.41;72.68
20825;BME280;10573;50.936;6.978;2023-05-10T07:53:55;100670.41;;;16.37;73.12
20825;BME280;10573;50.936;6.978;2023-05-10T07:56:27;100667.31;;;16.40;72.65
20825;BME280;10573;50.936;6.978;2023-05-10T07:59:03;100673.97;;;16.60;71.78
20825;BME280;10573;50.936;6.978;2023-05-10T08:01:32;100672.75;;;16.63;72.02
20825;BME280;10573;50.936;6.978;2023-05-10T08:03:58;100680.56;;;16.36;71.86
20825;BME280;10573;50.936;6.978;2023-05-10T08:06:23;100675.03;;;16.74;71.16
20825;BME280;10573;50.936;6.978;2023-05-10T08:08:51;100671.56;;;16.96;70.59
20825;BME280;10573;50.936;6.978;2023-05-10T08:11:21;100672.34;;;17.04;69.95
20825;BME280;10573;50.936;6.978;2023-05-10T08:13:49;100673.38;;;17.03;70.03
20825;BME280;10573;50.936;6.978;2023-05-10T08:16:15;100686.78;;;16.53;70.67
20825;BME280;10573;50.936;6.978;2023-05-10T08:18:40;100676.88;;;17.12;70.05
20825;BME280;10573;50.936;6.978;2023-05-10T08:21:06;100675.06;;;17.34;69.43
20825;BME280;10573;50.936;6.978;2023-05-10T08:23:32;100677.34;;;17.16;69.43
20825;BME280;10573;50.936;6.978;2023-05-10T08:25:57;100668.88;;;17.32;69.71
20825;BME280;10573;50.936;6.978;2023-05-10T08:28:23;100675.81;;;17.43;69.73
20825;BME280;10573;50.936;6.978;2023-05-10T08:30:50;100677.94;;;17.26;70.28
20825;BME280;10573;50.936;6.978;2023-05-10T08:33:17;100684.25;;;17.41;69.57
20825;BME280;10573;50.936;6.978;2023-05-10T08:35:42;100682.19;;;17.43;68.86
20825;BME280;10573;50.936;6.978;2023-05-10T08:38:08;100687.56;;;17.88;68.92
20825;BME280;10573;50.936;6.978;2023-05-10T08:40:33;100694.22;;;17.94;68.34
20825;BME280;10573;50.936;6.978;2023-05-10T08:43:10;100700.31;;;17.89;67.93
20825;BME280;10573;50.936;6.978;2023-05-10T08:45:41;100701.63;;;17.57;68.79
20825;BME280;10573;50.936;6.978;2023-05-10T08:48:08;100699.97;;;17.26;70.63
20825;BME280;10573;50.936;6.978;2023-05-10T08:50:39;100699.28;;;17.24;70.66
20825;BME280;10573;50.936;6.978;2023-05-10T08:53:09;100699.38;;;17.16;70.97
20825;BME280;10573;50.936;6.978;2023-05-10T08:55:35;100704.50;;;17.19;71.60
20825;BME280;10573;50.936;6.978;2023-05-10T08:58:03;100710.50;;;17.22;71.53
20825;BME280;10573;50.936;6.978;2023-05-10T09:00:29;100711.16;;;17.09;72.66
20825;BME280;10573;50.936;6.978;2023-05-10T09:02:54;100711.34;;;17.23;71.66
20825;BME280;10573;50.936;6.978;2023-05-10T09:05:20;100711.81;;;17.11;71.80
20825;BME280;10573;50.936;6.978;2023-05-10T09:07:46;100715.34;;;17.35;70.61
20825;BME280;10573;50.936;6.978;2023-05-10T09:10:11;100710.09;;;17.55;69.22
20825;BME280;10573;50.936;6.978;2023-05-10T09:12:38;100715.03;;;17.45;70.20
20825;BME280;10573;50.936;6.978;2023-05-10T09:15:05;100718.25;;;17.49;70.24
20825;BME280;10573;50.936;6.978;2023-05-10T09:17:31;100714.56;;;17.41;70.25
20825;BME280;10573;50.936;6.978;2023-05-10T09:20:00;100714.28;;;17.88;68.87
20825;BME280;10573;50.936;6.978;2023-05-10T09:22:26;100715.38;;;18.08;69.93
20825;BME280;10573;50.936;6.978;2023-05-10T09:25:05;100728.00;;;18.39;66.66
20825;BME280;10573;50.936;6.978;2023-05-10T09:27:32;100728.59;;;18.35;66.51
20825;BME280;10573;50.936;6.978;2023-05-10T09:29:59;100724.59;;;18.16;65.74
20825;BME280;10573;50.936;6.978;2023-05-10T09:32:41;100732.75;;;18.24;65.57
20825;BME280;10573;50.936;6.978;2023-05-10T09:35:16;100735.03;;;18.20;65.13
20825;BME280;10573;50.936;6.978;2023-05-10T09:37:45;100731.41;;;17.98;66.98
20825;BME280;10573;50.936;6.978;2023-05-10T09:40:15;100730.63;;;18.48;65.42
20825;BME280;10573;50.936;6.978;2023-05-10T09:42:43;100741.13;;;18.16;67.02
20825;BME280;10573;50.936;6.978;2023-05-10T09:45:15;100748.44;;;17.72;68.41
20825;BME280;10573;50.936;6.978;2023-05-10T09:47:40;100747.81;;;17.25;66.16
20825;BME280;10573;50.936;6.978;2023-05-10T09:50:06;100753.94;;;16.97;66.10
20825;BME280;10573;50.936;6.978;2023-05-10T09:52:51;100755.22;;;16.86;66.51
20825;BME280;10573;50.936;6.978;2023-05-10T09:55:19;100757.78;;;16.26;67.60
20825;BME280;10573;50.936;6.978;2023-05-10T09:57:46;100753.09;;;16.58;67.92
20825;BME280;10573;50.936;6.978;2023-05-10T10:00:18;100753.81;;;16.52;68.47
20825;BME280;10573;50.936;6.978;2023-05-10T10:02:45;100757.31;;;16.61;68.02
20825;BME280;10573;50.936;6.978;2023-05-10T10:05:11;100756.34;;;16.77;68.08
20825;BME280;10573;50.936;6.978;2023-05-10T10:07:36;100759.28;;;17.14;67.26
20825;BME280;10573;50.936;6.978;2023-05-10T10:10:02;100762.50;;;17.17;66.32
20825;BME280;10573;50.936;6.978;2023-05-10T10:12:30;100752.34;;;17.48;65.90
20825;BME280;10573;50.936;6.978;2023-05-10T10:14:56;100768.66;;;18.31;64.27
20825;BME280;10573;50.936;6.978;2023-05-10T10:17:21;100763.34;;;18.51;63.25
20825;BME280;10573;50.936;6.978;2023-05-10T10:19:48;100758.97;;;18.85;61.47
20825;BME280;10573;50.936;6.978;2023-05-10T10:22:13;100761.59;;;18.93;60.88
20825;BME280;10573;50.936;6.978;2023-05-10T10:24:39;100756.09;;;19.28;60.66
20825;BME280;10573;50.936;6.978;2023-05-10T10:27:24;100752.13;;;19.37;59.33
20825;BME280;10573;50.936;6.978;2023-05-10T10:30:07;100759.97;;;19.69;58.76
20825;BME280;10573;50.936;6.978;2023-05-10T10:33:06;100748.63;;;19.99;nan
20825;BME280;10573;50.936;6.978;2023-05-10T10:35:37;100742.50;;;20.17;53.80
20825;BME280;10573;50.936;6.978;2023-05-10T10:38:03;100754.72;;;20.96;54.17
20825;BME280;10573;50.936;6.978;2023-05-10T10:40:33;100744.19;;;21.52;51.81
20825;BME280;10573;50.936;6.978;2023-05-10T10:43:25;100752.66;;;22.16;49.93
20825;BME280;10573;50.936;6.978;2023-05-10T10:48:38;100756.66;;;20.75;51.53
20825;BME280;10573;50.936;6.978;2023-05-10T10:51:04;100752.53;;;20.24;53.14
20825;BME280;10573;50.936;6.978;2023-05-10T10:53:29;100760.47;;;19.86;53.83
20825;BME280;10573;50.936;6.978;2023-05-10T10:56:09;100762.06;;;18.97;55.58
20825;BME280;10573;50.936;6.978;2023-05-10T10:58:39;100769.34;;;19.04;56.26
20825;BME280;10573;50.936;6.978;2023-05-10T11:01:18;100762.66;;;19.55;55.87
20825;BME280;10573;50.936;6.978;2023-05-10T11:06:32;100759.38;;;20.62;52.96
20825;BME280;10573;50.936;6.978;2023-05-10T11:08:59;100763.81;;;21.64;51.04
20825;BME280;10573;50.936;6.978;2023-05-10T11:11:25;100772.63;;;20.80;52.37
20825;BME280;10573;50.936;6.978;2023-05-10T11:13:50;100768.00;;;20.05;54.49
20825;BME280;10573;50.936;6.978;2023-05-10T11:16:21;100773.25;;;19.52;55.02
20825;BME280;10573;50.936;6.978;2023-05-10T11:21:23;100774.22;;;19.72;54.31
20825;BME280;10573;50.936;6.978;2023-05-10T11:23:50;100776.94;;;19.66;54.63
20825;BME280;10573;50.936;6.978;2023-05-10T11:26:17;100776.88;;;19.52;55.55
20825;BME280;10573;50.936;6.978;2023-05-10T11:31:09;100776.59;;;19.40;55.41
20825;BME280;10573;50.936;6.978;2023-05-10T11:33:48;100789.00;;;19.23;55.73
20825;BME280;10573;50.936;6.978;2023-05-10T11:36:19;100790.66;;;18.67;57.29
20825;BME280;10573;50.936;6.978;2023-05-10T11:38:45;100787.13;;;18.73;57.64
20825;BME280;10573;50.936;6.978;2023-05-10T11:41:11;100780.53;;;18.74;57.17
20825;BME280;10573;50.936;6.978;2023-05-10T11:43:40;100787.38;;;18.57;57.63
20825;BME280;10573;50.936;6.978;2023-05-10T11:46:10;100784.22;;;18.60;57.98
20825;BME280;10573;50.936;6.978;2023-05-10T11:48:38;100786.03;;;18.74;58.22
20825;BME280;10573;50.936;6.978;2023-05-10T11:51:04;100794.19;;;18.61;58.14
20825;BME280;10573;50.936;6.978;2023-05-10T11:53:31;100799.63;;;18.33;58.65
20825;BME280;10573;50.936;6.978;2023-05-10T11:56:10;100792.31;;;17.88;58.88
20825;BME280;10573;50.936;6.978;2023-05-10T11:58:36;100786.59;;;18.41;57.63
20825;BME280;10573;50.936;6.978;2023-05-10T12:01:03;100785.66;;;18.77;55.96
20825;BME280;10573;50.936;6.978;2023-05-10T12:03:29;100785.13;;;18.67;55.35
20825;BME280;10573;50.936;6.978;2023-05-10T12:05:56;100799.84;;;18.96;54.41
20825;BME280;10573;50.936;6.978;2023-05-10T12:08:23;100790.53;;;18.97;53.94
20825;BME280;10573;50.936;6.978;2023-05-10T12:10:49;100789.00;;;19.23;54.11
20825;BME280;10573;50.936;6.978;2023-05-10T12:13:15;100794.06;;;19.13;53.43
20825;BME280;10573;50.936;6.978;2023-05-10T12:15:41;100797.50;;;19.21;52.85
20825;BME280;10573;50.936;6.978;2023-05-10T12:18:14;100791.50;;;19.11;53.12
20825;BME280;10573;50.936;6.978;2023-05-10T12:20:40;100783.84;;;19.48;53.21
20825;BME280;10573;50.936;6.978;2023-05-10T12:23:08;100781.53;;;19.87;52.50
20825;BME280;10573;50.936;6.978;2023-05-10T12:25:35;100786.44;;;19.91;52.11
20825;BME280;10573;50.936;6.978;2023-05-10T12:28:06;100784.38;;;20.00;52.13
20825;BME280;10573;50.936;6.978;2023-05-10T12:30:32;100783.03;;;20.65;49.75
20825;BME280;10573;50.936;6.978;2023-05-10T12:33:10;100783.28;;;20.83;49.54
20825;BME280;10573;50.936;6.978;2023-05-10T12:35:47;100781.56;;;20.95;49.24
20825;BME280;10573;50.936;6.978;2023-05-10T12:38:32;100780.63;;;21.62;47.53
20825;BME280;10573;50.936;6.978;2023-05-10T12:40:59;100781.41;;;21.89;46.74
20825;BME280;10573;50.936;6.978;2023-05-10T12:43:25;100785.28;;;21.82;45.74
20825;BME280;10573;50.936;6.978;2023-05-10T12:45:50;100791.34;;;21.32;47.83
20825;BME280;10573;50.936;6.978;2023-05-10T12:48:16;100790.47;;;21.31;46.90
20825;BME280;10573;50.936;6.978;2023-05-10T12:50:41;100793.44;;;21.56;46.69
20825;BME280;10573;50.936;6.978;2023-05-10T12:53:06;100784.81;;;22.30;45.42
20825;BME280;10573;50.936;6.978;2023-05-10T12:55:32;100790.69;;;23.73;43.48
20825;BME280;10573;50.936;6.978;2023-05-10T12:57:57;100778.78;;;24.03;40.17
20825;BME280;10573;50.936;6.978;2023-05-10T13:00:23;100784.78;;;23.26;41.68
20825;BME280;10573;50.936;6.978;2023-05-10T13:02:48;100791.06;;;22.89;42.32
20825;BME280;10573;50.936;6.978;2023-05-10T13:05:14;100794.09;;;22.17;44.34
20825;BME280;10573;50.936;6.978;2023-05-10T13:07:40;100798.84;;;22.03;44.64
20825;BME280;10573;50.936;6.978;2023-05-10T13:10:06;100799.84;;;21.64;46.34
20825;BME280;10573;50.936;6.978;2023-05-10T13:12:32;100788.56;;;22.10;44.83
20825;BME280;10573;50.936;6.978;2023-05-10T13:14:57;100782.53;;;23.09;43.42
20825;BME280;10573;50.936;6.978;2023-05-10T13:17:23;100791.63;;;22.73;44.29
20825;BME280;10573;50.936;6.978;2023-05-10T13:19:48;100782.09;;;23.38;41.01
20825;BME280;10573;50.936;6.978;2023-05-10T13:22:13;100783.59;;;23.96;40.64